Prospect, Connecticut
Current Conditions -  °F | °C
As of 10:53 AM on Monday 24 Nov 2014 (Local Time) from KMMK Reporting Station
Haze Haze  
Wind Chill: 61°   Ceiling: NA
Heat Index: 61°   Visibility: 3mi
Dew Point: 59°   Wind: 14mph
Humidity: 93%   Direction: 180°S
Pressure: 29.68"   Gusts: NA
Location:  41.5°N, 72.98°W
Report Text: KMMK 241553Z AUTO 18012KT 3SM BR 16/15 A2968 RMK AO2 RAEMM SLP051 P0000 T01610150 TSNO $
Loading
Personal Weather Stations






























Interactive Weather Map New forecast layout! Learn more

10-Day Weather Forecast

Advertisements
Track Severe Weather on mobile